Time,TemperatureF,DewpointF,PressureIn,WindDirection,WindDirectionDegrees,WindSpeedMPH,WindSpeedGustMPH,Humidity,HourlyPrecipIn,Conditions,Clouds,dailyrainin,SoftwareType,DateUTC
2013-09-01 00:01:00,67.3,65.4,29.83,ESE,112,0.0,0.0,94,0.00,,,0.00,WUHU21623XXSP,2013-09-01 04:01:00,
2013-09-01 00:06:00,67.3,65.4,29.83,ESE,112,0.0,0.0,94,0.00,,,0.00,WUHU21623XXSP,2013-09-01 04:06:00,
2013-09-01 00:11:00,67.1,65.3,29.82,ESE,112,0.0,0.0,94,0.00,,,0.00,WUHU21623XXSP,2013-09-01 04:11:00,
2013-09-01 00:16:00,67.1,65.3,29.82,ESE,112,0.0,0.0,94,0.00,,,0.00,WUHU21623XXSP,2013-09-01 04:16:00,
2013-09-01 00:21:00,66.9,65.1,29.82,ESE,112,0.0,0.0,94,0.00,,,0.00,WUHU21623XXSP,2013-09-01 04:21:00,
2013-09-01 00:26:00,66.9,65.1,29.82,ESE,112,0.0,0.0,94,0.00,,,0.00,WUHU21623XXSP,2013-09-01 04:26:00,
2013-09-01 00:31:00,66.7,64.9,29.82,ESE,112,0.0,0.0,94,0.00,,,0.00,WUHU21623XXSP,2013-09-01 04:31:00,
2013-09-01 00:36:00,66.7,64.9,29.82,ESE,112,0.0,0.0,94,0.00,,,0.00,WUHU21623XXSP,2013-09-01 04:36:00,
2013-09-01 00:41:00,66.6,64.7,29.82,ESE,112,0.0,0.0,94,0.00,,,0.00,WUHU21623XXSP,2013-09-01 04:41:00,
2013-09-01 00:46:00,66.4,64.5,29.82,ESE,112,0.0,0.0,94,0.00,,,0.00,WUHU21623XXSP,2013-09-01 04:46:00,
2013-09-01 00:51:00,66.2,64.4,29.82,ESE,112,0.0,0.0,94,0.00,,,0.00,WUHU21623XXSP,2013-09-01 04:51:00,
2013-09-01 00:56:00,66.0,64.2,29.82,ESE,112,0.0,0.0,94,0.00,,,0.00,WUHU21623XXSP,2013-09-01 04:56:00,
2013-09-01 01:01:00,66.0,64.2,29.82,ESE,112,0.0,0.0,94,0.00,,,0.00,WUHU21623XXSP,2013-09-01 05:01:00,
2013-09-01 01:06:00,65.8,64.0,29.82,ESE,112,0.0,0.0,94,0.00,,,0.00,WUHU21623XXSP,2013-09-01 05:06:00,
2013-09-01 01:11:00,65.7,63.8,29.81,ESE,112,0.0,0.0,94,0.00,,,0.00,WUHU21623XXSP,2013-09-01 05:11:00,
2013-09-01 01:16:00,65.5,63.7,29.82,ESE,112,0.0,0.0,94,0.00,,,0.00,WUHU21623XXSP,2013-09-01 05:16:00,
2013-09-01 01:21:00,65.1,63.6,29.82,ESE,112,0.0,0.0,95,0.00,,,0.00,WUHU21623XXSP,2013-09-01 05:21:00,
2013-09-01 01:26:00,65.1,63.6,29.82,East,90,0.0,0.0,95,0.00,,,0.00,WUHU21623XXSP,2013-09-01 05:26:00,
2013-09-01 01:31:00,65.5,64.0,29.82,NE,45,0.0,0.0,95,0.00,,,0.00,WUHU21623XXSP,2013-09-01 05:31:00,
2013-09-01 01:36:00,65.7,64.1,29.82,NE,45,0.0,0.0,95,0.00,,,0.00,WUHU21623XXSP,2013-09-01 05:36:00,
2013-09-01 01:41:00,65.8,64.3,29.82,NE,45,0.0,0.0,95,0.00,,,0.00,WUHU21623XXSP,2013-09-01 05:41:00,
2013-09-01 01:46:00,65.8,64.3,29.82,NE,45,0.0,0.0,95,0.00,,,0.00,WUHU21623XXSP,2013-09-01 05:46:00,
2013-09-01 01:51:00,65.8,64.3,29.81,NE,45,0.0,1.3,95,0.00,,,0.00,WUHU21623XXSP,2013-09-01 05:51:00,
2013-09-01 01:56:00,65.7,64.1,29.81,NE,45,0.0,1.3,95,0.00,,,0.00,WUHU21623XXSP,2013-09-01 05:56:00,
2013-09-01 02:01:00,65.5,64.0,29.81,NE,45,0.0,0.0,95,0.00,,,0.00,WUHU21623XXSP,2013-09-01 06:01:00,
2013-09-01 02:06:00,65.5,64.0,29.81,NE,45,0.0,0.0,95,0.00,,,0.00,WUHU21623XXSP,2013-09-01 06:06:00,
2013-09-01 02:11:00,65.3,63.8,29.81,NE,45,0.0,0.0,95,0.00,,,0.00,WUHU21623XXSP,2013-09-01 06:11:00,
2013-09-01 02:16:00,65.3,63.8,29.81,NE,45,0.0,0.0,95,0.00,,,0.00,WUHU21623XXSP,2013-09-01 06:16:00,
2013-09-01 02:21:00,65.1,63.6,29.81,NE,45,0.0,0.0,95,0.00,,,0.00,WUHU21623XXSP,2013-09-01 06:21:00,
2013-09-01 02:26:00,65.1,63.6,29.81,NE,45,0.0,0.0,95,0.00,,,0.00,WUHU21623XXSP,2013-09-01 06:26:00,
2013-09-01 02:31:00,64.9,63.5,29.81,NE,45,0.0,0.0,95,0.00,,,0.00,WUHU21623XXSP,2013-09-01 06:31:00,
2013-09-01 02:36:00,64.9,63.5,29.81,NE,45,0.0,0.0,95,0.00,,,0.00,WUHU21623XXSP,2013-09-01 06:36:00,
2013-09-01 02:41:00,65.1,63.6,29.82,NE,45,0.0,0.0,95,0.00,,,0.00,WUHU21623XXSP,2013-09-01 06:41:00,
2013-09-01 02:46:00,65.1,63.6,29.81,NE,45,0.0,0.0,95,0.00,,,0.00,WUHU21623XXSP,2013-09-01 06:46:00,
2013-09-01 02:51:00,65.1,63.6,29.81,NE,45,0.0,0.0,95,0.00,,,0.00,WUHU21623XXSP,2013-09-01 06:51:00,
2013-09-01 02:56:00,65.1,63.6,29.81,NE,45,0.0,0.0,95,0.00,,,0.00,WUHU21623XXSP,2013-09-01 06:56:00,
2013-09-01 03:01:00,65.1,63.6,29.81,NE,45,0.0,0.0,95,0.00,,,0.00,WUHU21623XXSP,2013-09-01 07:01:00,
2013-09-01 03:06:00,65.3,63.8,29.81,NE,45,0.0,0.0,95,0.00,,,0.00,WUHU21623XXSP,2013-09-01 07:06:00,
2013-09-01 03:11:00,65.3,63.8,29.81,NE,45,0.0,0.0,95,0.00,,,0.00,WUHU21623XXSP,2013-09-01 07:11:00,
2013-09-01 03:16:00,65.5,64.0,29.81,NE,45,0.0,0.0,95,0.00,,,0.00,WUHU21623XXSP,2013-09-01 07:16:00,
2013-09-01 03:21:00,65.3,63.8,29.81,NE,45,0.0,0.0,95,0.00,,,0.00,WUHU21623XXSP,2013-09-01 07:21:00,
2013-09-01 03:26:00,65.5,64.0,29.81,NE,45,0.0,0.0,95,0.00,,,0.00,WUHU21623XXSP,2013-09-01 07:26:00,
2013-09-01 03:31:00,65.5,64.0,29.80,NE,45,0.0,0.0,95,0.00,,,0.00,WUHU21623XXSP,2013-09-01 07:31:00,
2013-09-01 03:36:00,65.3,63.8,29.81,NE,45,0.0,0.0,95,0.00,,,0.00,WUHU21623XXSP,2013-09-01 07:36:00,
2013-09-01 03:41:00,65.5,64.0,29.81,NE,45,0.0,0.0,95,0.00,,,0.00,WUHU21623XXSP,2013-09-01 07:41:00,
2013-09-01 03:46:00,65.5,64.0,29.80,NE,45,0.0,0.0,95,0.00,,,0.00,WUHU21623XXSP,2013-09-01 07:46:00,
2013-09-01 03:51:00,65.5,63.8,29.80,NE,45,0.0,0.0,95,0.00,,,0.00,WUHU21623XXSP,2013-09-01 07:51:00,
2013-09-01 03:56:00,65.5,64.0,29.81,NE,45,0.0,0.0,95,0.00,,,0.00,WUHU21623XXSP,2013-09-01 07:56:00,
2013-09-01 04:01:00,65.5,64.0,29.81,NE,45,0.0,0.0,95,0.00,,,0.00,WUHU21623XXSP,2013-09-01 08:01:00,
2013-09-01 04:06:00,65.5,64.0,29.81,NE,45,0.0,0.0,95,0.00,,,0.00,WUHU21623XXSP,2013-09-01 08:06:00,
2013-09-01 04:11:00,65.5,64.0,29.82,NE,45,0.0,0.0,95,0.00,,,0.00,WUHU21623XXSP,2013-09-01 08:11:00,
2013-09-01 04:16:00,65.7,64.1,29.82,NE,45,0.0,0.0,95,0.00,,,0.00,WUHU21623XXSP,2013-09-01 08:16:00,
2013-09-01 04:21:00,65.7,64.1,29.82,NE,45,0.0,0.0,95,0.00,,,0.00,WUHU21623XXSP,2013-09-01 08:21:00,
2013-09-01 04:26:00,65.7,64.1,29.82,NE,45,0.0,0.0,95,0.00,,,0.00,WUHU21623XXSP,2013-09-01 08:26:00,
2013-09-01 04:31:00,65.7,64.1,29.82,NE,45,0.0,0.0,95,0.00,,,0.00,WUHU21623XXSP,2013-09-01 08:31:00,
2013-09-01 04:36:00,65.8,64.3,29.82,NE,45,0.0,0.0,95,0.00,,,0.00,WUHU21623XXSP,2013-09-01 08:36:00,
2013-09-01 04:41:00,65.8,64.6,29.82,East,90,0.0,0.0,96,0.00,,,0.00,WUHU21623XXSP,2013-09-01 08:41:00,
2013-09-01 04:46:00,66.0,64.8,29.82,SE,135,2.9,4.9,96,0.00,,,0.00,WUHU21623XXSP,2013-09-01 08:46:00,
2013-09-01 04:51:00,66.0,64.8,29.82,SE,135,0.0,4.9,96,0.00,,,0.00,WUHU21623XXSP,2013-09-01 08:51:00,
2013-09-01 04:56:00,66.0,64.8,29.82,SE,135,0.0,3.4,96,0.00,,,0.00,WUHU21623XXSP,2013-09-01 08:56:00,
2013-09-01 05:01:00,66.0,64.8,29.82,ESE,112,0.0,3.8,96,0.00,,,0.00,WUHU21623XXSP,2013-09-01 09:01:00,
2013-09-01 05:06:00,66.0,64.8,29.82,ESE,112,0.0,3.8,96,0.00,,,0.00,WUHU21623XXSP,2013-09-01 09:06:00,
2013-09-01 05:11:00,66.0,64.8,29.82,ESE,112,0.0,3.8,96,0.00,,,0.00,WUHU21623XXSP,2013-09-01 09:11:00,
2013-09-01 05:16:00,66.0,64.8,29.82,ESE,112,0.0,0.0,96,0.00,,,0.00,WUHU21623XXSP,2013-09-01 09:16:00,
2013-09-01 05:21:00,66.0,64.8,29.82,ESE,112,0.0,0.0,96,0.00,,,0.00,WUHU21623XXSP,2013-09-01 09:21:00,
2013-09-01 05:26:00,66.0,64.8,29.82,ESE,112,0.0,0.0,96,0.00,,,0.00,WUHU21623XXSP,2013-09-01 09:26:00,
2013-09-01 05:31:00,66.0,64.8,29.83,ESE,112,0.0,0.0,96,0.00,,,0.00,WUHU21623XXSP,2013-09-01 09:31:00,
2013-09-01 05:36:00,66.0,64.8,29.83,ESE,112,0.0,0.0,96,0.00,,,0.00,WUHU21623XXSP,2013-09-01 09:36:00,
2013-09-01 05:41:00,66.0,64.8,29.83,ESE,112,0.0,0.0,96,0.00,,,0.00,WUHU21623XXSP,2013-09-01 09:41:00,
2013-09-01 05:46:00,66.0,64.8,29.83,ESE,112,0.0,0.0,96,0.00,,,0.00,WUHU21623XXSP,2013-09-01 09:46:00,
2013-09-01 05:51:00,66.0,64.8,29.83,ESE,112,0.0,0.0,96,0.00,,,0.00,WUHU21623XXSP,2013-09-01 09:51:00,
2013-09-01 05:56:00,66.0,64.8,29.83,ESE,112,0.0,0.0,96,0.00,,,0.00,WUHU21623XXSP,2013-09-01 09:56:00,
2013-09-01 06:01:00,66.0,64.8,29.83,ESE,112,0.0,0.0,96,0.00,,,0.00,WUHU21623XXSP,2013-09-01 10:01:00,
2013-09-01 06:06:00,66.0,64.8,29.84,East,90,0.0,4.7,96,0.00,,,0.00,WUHU21623XXSP,2013-09-01 10:06:00,
2013-09-01 06:11:00,66.0,64.8,29.83,ESE,112,0.0,6.9,96,0.00,,,0.00,WUHU21623XXSP,2013-09-01 10:11:00,
2013-09-01 06:16:00,66.0,64.8,29.83,ESE,112,0.0,6.9,96,0.00,,,0.00,WUHU21623XXSP,2013-09-01 10:16:00,
2013-09-01 06:21:00,66.0,64.8,29.83,ESE,112,0.0,4.5,96,0.00,,,0.00,WUHU21623XXSP,2013-09-01 10:21:00,
2013-09-01 06:26:00,66.0,64.8,29.83,ESE,112,0.0,4.5,96,0.00,,,0.00,WUHU21623XXSP,2013-09-01 10:26:00,
2013-09-01 06:31:00,66.0,64.8,29.83,ESE,112,0.0,0.0,96,0.00,,,0.00,WUHU21623XXSP,2013-09-01 10:31:00,
2013-09-01 06:36:00,66.0,64.8,29.83,ESE,112,0.0,0.0,96,0.00,,,0.00,WUHU21623XXSP,2013-09-01 10:36:00,
2013-09-01 06:41:00,66.0,65.1,29.83,ESE,112,0.0,0.0,97,0.00,,,0.00,WUHU21623XXSP,2013-09-01 10:41:00,
2013-09-01 06:46:00,66.0,65.1,29.83,ESE,112,0.0,0.0,97,0.00,,,0.00,WUHU21623XXSP,2013-09-01 10:46:00,
2013-09-01 06:51:00,66.2,65.0,29.83,ESE,112,0.0,0.0,96,0.00,,,0.00,WUHU21623XXSP,2013-09-01 10:51:00,
2013-09-01 06:56:00,66.2,65.3,29.83,ESE,112,0.0,0.0,97,0.00,,,0.00,WUHU21623XXSP,2013-09-01 10:56:00,
2013-09-01 07:01:00,66.4,65.5,29.83,ESE,112,0.0,0.0,97,0.00,,,0.00,WUHU21623XXSP,2013-09-01 11:01:00,
2013-09-01 07:06:00,66.2,65.3,29.83,ESE,112,0.0,0.0,97,0.00,,,0.00,WUHU21623XXSP,2013-09-01 11:06:00,
2013-09-01 07:11:00,66.4,65.5,29.83,ESE,112,0.0,0.0,97,0.00,,,0.00,WUHU21623XXSP,2013-09-01 11:11:00,
2013-09-01 07:16:00,66.4,65.5,29.83,ESE,112,0.0,0.0,97,0.00,,,0.00,WUHU21623XXSP,2013-09-01 11:16:00,
2013-09-01 07:21:00,66.6,65.6,29.83,ESE,112,0.0,0.0,97,0.00,,,0.00,WUHU21623XXSP,2013-09-01 11:21:00,
2013-09-01 07:26:00,66.6,65.3,29.83,ESE,112,0.0,0.0,96,0.00,,,0.00,WUHU21623XXSP,2013-09-01 11:26:00,
2013-09-01 07:31:00,66.7,65.5,29.83,ESE,112,0.0,0.0,96,0.00,,,0.00,WUHU21623XXSP,2013-09-01 11:31:00,
2013-09-01 07:36:00,66.7,65.5,29.83,ESE,112,0.0,0.0,96,0.00,,,0.00,WUHU21623XXSP,2013-09-01 11:36:00,
2013-09-01 07:41:00,66.9,65.7,29.83,ESE,112,0.0,0.0,96,0.00,,,0.00,WUHU21623XXSP,2013-09-01 11:41:00,
2013-09-01 07:46:00,66.9,65.7,29.82,ESE,112,0.0,0.0,96,0.00,,,0.00,WUHU21623XXSP,2013-09-01 11:46:00,
2013-09-01 07:51:00,67.1,65.9,29.82,ESE,112,0.0,0.0,96,0.00,,,0.00,WUHU21623XXSP,2013-09-01 11:51:00,
2013-09-01 07:56:00,67.5,66.2,29.82,ESE,112,0.0,6.3,96,0.00,,,0.00,WUHU21623XXSP,2013-09-01 11:56:00,
2013-09-01 08:01:00,67.6,66.4,29.83,ESE,112,0.0,6.3,96,0.00,,,0.00,WUHU21623XXSP,2013-09-01 12:01:00,
2013-09-01 08:06:00,67.8,66.9,29.83,ESE,112,0.0,5.1,97,0.00,,,0.00,WUHU21623XXSP,2013-09-01 12:06:00,
2013-09-01 08:11:00,67.8,66.9,29.83,East,90,0.0,7.4,97,0.00,,,0.00,WUHU21623XXSP,2013-09-01 12:11:00,
2013-09-01 08:16:00,67.8,66.6,29.83,ESE,112,0.0,7.4,96,0.00,,,0.00,WUHU21623XXSP,2013-09-01 12:16:00,
2013-09-01 08:21:00,68.2,67.0,29.83,ESE,112,2.7,6.0,96,0.00,,,0.00,WUHU21623XXSP,2013-09-01 12:21:00,
2013-09-01 08:26:00,68.4,67.1,29.83,ESE,112,0.0,4.0,96,0.00,,,0.00,WUHU21623XXSP,2013-09-01 12:26:00,
2013-09-01 08:31:00,68.7,67.5,29.82,ESE,112,5.6,5.6,96,0.00,,,0.00,WUHU21623XXSP,2013-09-01 12:31:00,
2013-09-01 08:36:00,68.9,67.7,29.83,SE,135,0.0,6.0,96,0.00,,,0.00,WUHU21623XXSP,2013-09-01 12:36:00,
2013-09-01 08:41:00,69.4,67.7,29.82,ESE,112,0.0,10.7,95,0.00,,,0.00,WUHU21623XXSP,2013-09-01 12:41:00,
2013-09-01 08:46:00,69.6,68.1,29.82,ESE,112,0.0,10.7,95,0.00,,,0.00,WUHU21623XXSP,2013-09-01 12:46:00,
2013-09-01 08:51:00,70.2,68.6,29.82,SE,135,4.5,8.5,95,0.00,,,0.00,WUHU21623XXSP,2013-09-01 12:51:00,
2013-09-01 08:56:00,70.3,68.5,29.82,ESE,112,0.0,4.5,94,0.00,,,0.00,WUHU21623XXSP,2013-09-01 12:56:00,
2013-09-01 09:01:00,70.5,68.7,29.83,SE,135,0.0,8.1,94,0.00,,,0.00,WUHU21623XXSP,2013-09-01 13:01:00,
2013-09-01 09:06:00,71.2,68.9,29.83,SE,135,0.0,8.1,93,0.00,,,0.00,WUHU21623XXSP,2013-09-01 13:06:00,
2013-09-01 09:11:00,72.1,69.5,29.83,SE,135,0.0,7.2,92,0.00,,,0.00,WUHU21623XXSP,2013-09-01 13:11:00,
2013-09-01 09:16:00,72.3,69.6,29.84,SE,135,0.0,7.2,91,0.00,,,0.00,WUHU21623XXSP,2013-09-01 13:16:00,
2013-09-01 09:21:00,72.7,69.3,29.84,ESE,112,4.0,7.2,89,0.00,,,0.00,WUHU21623XXSP,2013-09-01 13:21:00,
2013-09-01 09:26:00,73.2,69.8,29.84,SE,135,3.6,9.4,89,0.00,,,0.00,WUHU21623XXSP,2013-09-01 13:26:00,
2013-09-01 09:31:00,72.7,68.9,29.84,ESE,112,0.0,9.4,88,0.00,,,0.00,WUHU21623XXSP,2013-09-01 13:31:00,
2013-09-01 09:36:00,73.0,69.3,29.84,ESE,112,2.5,8.5,88,0.00,,,0.00,WUHU21623XXSP,2013-09-01 13:36:00,
2013-09-01 09:40:00,73.6,69.8,29.83,ESE,112,0.0,3.4,88,0.00,,,0.00,WUHU21623XXSP,2013-09-01 13:40:00,
2013-09-01 09:46:00,73.9,69.9,29.83,ESE,112,0.0,5.4,87,0.00,,,0.00,WUHU21623XXSP,2013-09-01 13:46:00,
2013-09-01 09:50:00,74.8,70.4,29.83,ESE,112,0.0,5.4,86,0.00,,,0.00,WUHU21623XXSP,2013-09-01 13:50:00,
2013-09-01 09:55:00,75.4,70.4,29.83,SE,135,5.4,8.1,85,0.00,,,0.00,WUHU21623XXSP,2013-09-01 13:55:00,
2013-09-01 10:00:00,75.2,70.1,29.83,SE,135,8.3,8.3,84,0.00,,,0.00,WUHU21623XXSP,2013-09-01 14:00:00,
2013-09-01 10:05:00,74.5,69.0,29.83,SE,135,3.1,8.9,83,0.00,,,0.00,WUHU21623XXSP,2013-09-01 14:05:00,
2013-09-01 10:10:00,74.8,69.4,29.83,ESE,112,0.0,8.9,83,0.00,,,0.00,WUHU21623XXSP,2013-09-01 14:10:00,
2013-09-01 10:15:00,75.4,70.3,29.83,ESE,112,2.2,8.5,84,0.00,,,0.00,WUHU21623XXSP,2013-09-01 14:15:00,
2013-09-01 10:20:00,75.7,69.9,29.82,ESE,112,0.0,5.4,82,0.00,,,0.00,WUHU21623XXSP,2013-09-01 14:20:00,
2013-09-01 10:25:00,76.1,70.2,29.83,ESE,112,0.0,5.4,82,0.00,,,0.00,WUHU21623XXSP,2013-09-01 14:25:00,
2013-09-01 10:30:00,76.3,70.0,29.82,SE,135,0.0,6.3,81,0.00,,,0.00,WUHU21623XXSP,2013-09-01 14:30:00,
2013-09-01 10:35:00,75.9,70.1,29.82,East,90,0.0,6.3,82,0.00,,,0.00,WUHU21623XXSP,2013-09-01 14:35:00,
2013-09-01 10:40:00,76.5,70.2,29.82,ESE,112,0.0,5.4,81,0.00,,,0.00,WUHU21623XXSP,2013-09-01 14:40:00,
2013-09-01 10:45:00,76.3,70.0,29.82,ESE,112,4.5,6.7,81,0.00,,,0.00,WUHU21623XXSP,2013-09-01 14:45:00,
2013-09-01 10:50:00,76.8,70.5,29.82,SE,135,0.7,6.7,81,0.00,,,0.00,WUHU21623XXSP,2013-09-01 14:50:00,
2013-09-01 10:55:00,76.8,70.2,29.82,ESE,112,7.6,7.6,80,0.00,,,0.00,WUHU21623XXSP,2013-09-01 14:55:00,
2013-09-01 11:00:00,76.8,69.8,29.82,ESE,112,0.0,9.2,79,0.00,,,0.00,WUHU21623XXSP,2013-09-01 15:00:00,
2013-09-01 11:05:00,76.8,70.2,29.82,ESE,112,0.0,9.2,80,0.00,,,0.00,WUHU21623XXSP,2013-09-01 15:05:00,
2013-09-01 11:10:00,77.4,70.7,29.82,East,90,0.0,7.8,80,0.00,,,0.00,WUHU21623XXSP,2013-09-01 15:10:00,
2013-09-01 11:15:00,78.1,70.6,29.82,ENE,67,0.0,7.8,78,0.00,,,0.00,WUHU21623XXSP,2013-09-01 15:15:00,
2013-09-01 11:20:00,78.4,71.0,29.81,ESE,112,2.0,6.5,78,0.00,,,0.00,WUHU21623XXSP,2013-09-01 15:20:00,
2013-09-01 11:25:00,78.3,70.8,29.81,SE,135,0.0,6.5,78,0.00,,,0.00,WUHU21623XXSP,2013-09-01 15:25:00,
2013-09-01 11:30:00,77.7,70.3,29.82,SE,135,0.0,4.3,78,0.00,,,0.00,WUHU21623XXSP,2013-09-01 15:30:00,
2013-09-01 11:35:00,78.1,71.0,29.82,ESE,112,0.0,3.4,79,0.00,,,0.00,WUHU21623XXSP,2013-09-01 15:35:00,
2013-09-01 11:40:00,78.8,71.3,29.82,ESE,112,0.0,3.4,78,0.00,,,0.00,WUHU21623XXSP,2013-09-01 15:40:00,
2013-09-01 11:45:00,78.6,70.8,29.82,East,90,0.0,6.5,77,0.00,,,0.00,WUHU21623XXSP,2013-09-01 15:45:00,
2013-09-01 11:50:00,78.4,70.6,29.81,ENE,67,0.0,6.5,77,0.00,,,0.00,WUHU21623XXSP,2013-09-01 15:50:00,
2013-09-01 11:55:00,78.4,70.6,29.81,ESE,112,0.0,3.8,77,0.00,,,0.00,WUHU21623XXSP,2013-09-01 15:55:00,
2013-09-01 12:00:00,78.6,71.2,29.81,ESE,112,0.0,3.8,78,0.00,,,0.00,WUHU21623XXSP,2013-09-01 16:00:00,
2013-09-01 12:05:00,79.0,70.7,29.81,ENE,67,0.0,5.8,76,0.00,,,0.00,WUHU21623XXSP,2013-09-01 16:05:00,
2013-09-01 12:10:00,79.7,71.5,29.80,ENE,67,0.0,5.8,76,0.00,,,0.00,WUHU21623XXSP,2013-09-01 16:10:00,
2013-09-01 12:15:00,81.1,72.1,29.80,ENE,67,0.0,4.5,74,0.00,,,0.00,WUHU21623XXSP,2013-09-01 16:15:00,
2013-09-01 12:20:00,81.7,72.6,29.80,SE,135,0.0,7.2,74,0.00,,,0.00,WUHU21623XXSP,2013-09-01 16:20:00,
2013-09-01 12:25:00,81.5,72.0,29.80,SE,135,0.2,7.2,73,0.00,,,0.00,WUHU21623XXSP,2013-09-01 16:25:00,
2013-09-01 12:30:00,80.6,71.2,29.80,ESE,112,4.7,7.8,73,0.00,,,0.00,WUHU21623XXSP,2013-09-01 16:30:00,
2013-09-01 12:35:00,79.7,70.7,29.80,ENE,67,0.0,7.8,74,0.00,,,0.00,WUHU21623XXSP,2013-09-01 16:35:00,
2013-09-01 12:40:00,79.7,71.1,29.80,SE,135,0.0,7.8,75,0.00,,,0.00,WUHU21623XXSP,2013-09-01 16:40:00,
2013-09-01 12:45:00,79.2,70.5,29.80,ESE,112,0.0,7.8,75,0.00,,,0.00,WUHU21623XXSP,2013-09-01 16:45:00,
2013-09-01 12:50:00,79.5,71.3,29.80,ESE,112,0.0,8.3,76,0.00,,,0.00,WUHU21623XXSP,2013-09-01 16:50:00,
2013-09-01 12:55:00,80.1,71.0,29.80,ESE,112,0.0,8.3,74,0.00,,,0.00,WUHU21623XXSP,2013-09-01 16:55:00,
2013-09-01 13:00:00,79.7,70.7,29.80,ESE,112,0.0,6.0,74,0.00,,,0.00,WUHU21623XXSP,2013-09-01 17:00:00,
2013-09-01 13:05:00,79.7,71.1,29.80,ESE,112,0.0,6.7,75,0.00,,,0.00,WUHU21623XXSP,2013-09-01 17:05:00,
2013-09-01 13:10:00,80.4,71.8,29.80,ESE,112,1.6,6.7,75,0.00,,,0.00,WUHU21623XXSP,2013-09-01 17:10:00,
2013-09-01 13:15:00,81.5,72.4,29.81,ESE,112,0.0,4.7,74,0.00,,,0.00,WUHU21623XXSP,2013-09-01 17:15:00,
2013-09-01 13:20:00,81.5,71.6,29.81,ESE,112,0.0,3.8,72,0.00,,,0.00,WUHU21623XXSP,2013-09-01 17:20:00,
2013-09-01 13:25:00,81.3,71.8,29.81,East,90,0.0,4.0,73,0.00,,,0.00,WUHU21623XXSP,2013-09-01 17:25:00,
2013-09-01 13:30:00,81.7,71.8,29.80,SE,135,7.2,7.2,72,0.00,,,0.00,WUHU21623XXSP,2013-09-01 17:30:00,
2013-09-01 13:35:00,81.7,71.8,29.80,ESE,112,0.0,7.2,72,0.00,,,0.00,WUHU21623XXSP,2013-09-01 17:35:00,
2013-09-01 13:40:00,81.7,72.6,29.80,ESE,112,2.0,7.2,74,0.00,,,0.00,WUHU21623XXSP,2013-09-01 17:40:00,
2013-09-01 13:45:00,82.0,72.5,29.79,ESE,112,0.0,6.3,73,0.00,,,0.00,WUHU21623XXSP,2013-09-01 17:45:00,
2013-09-01 13:50:00,81.5,71.6,29.79,ESE,112,0.0,7.4,72,0.00,,,0.00,WUHU21623XXSP,2013-09-01 17:50:00,
2013-09-01 13:55:00,82.0,71.7,29.79,ESE,112,0.0,7.4,71,0.00,,,0.00,WUHU21623XXSP,2013-09-01 17:55:00,
2013-09-01 14:00:00,82.2,71.8,29.79,ESE,112,0.0,7.6,71,0.00,,,0.00,WUHU21623XXSP,2013-09-01 18:00:00,
2013-09-01 14:05:00,82.0,71.7,29.78,ESE,112,0.0,9.2,71,0.00,,,0.00,WUHU21623XXSP,2013-09-01 18:05:00,
2013-09-01 14:10:00,82.0,72.5,29.79,ESE,112,0.0,9.2,73,0.00,,,0.00,WUHU21623XXSP,2013-09-01 18:10:00,
2013-09-01 14:15:00,82.2,72.2,29.78,East,90,0.0,4.3,72,0.00,,,0.00,WUHU21623XXSP,2013-09-01 18:15:00,
2013-09-01 14:20:00,82.2,71.8,29.79,ENE,67,0.0,6.3,71,0.00,,,0.00,WUHU21623XXSP,2013-09-01 18:20:00,
2013-09-01 14:25:00,82.2,71.8,29.78,ESE,112,0.0,6.7,71,0.00,,,0.00,WUHU21623XXSP,2013-09-01 18:25:00,
2013-09-01 14:30:00,82.8,72.8,29.78,ESE,112,0.0,6.7,72,0.00,,,0.00,WUHU21623XXSP,2013-09-01 18:30:00,
2013-09-01 14:35:00,81.9,71.5,29.78,ESE,112,0.0,0.0,71,0.00,,,0.00,WUHU21623XXSP,2013-09-01 18:35:00,
2013-09-01 14:40:00,82.0,71.7,29.77,ESE,112,0.0,2.5,71,0.00,,,0.00,WUHU21623XXSP,2013-09-01 18:40:00,
2013-09-01 14:45:00,83.3,72.9,29.77,SE,135,0.0,6.3,71,0.00,,,0.00,WUHU21623XXSP,2013-09-01 18:45:00,
2013-09-01 14:50:00,82.9,71.2,29.77,SE,135,0.0,6.3,68,0.00,,,0.00,WUHU21623XXSP,2013-09-01 18:50:00,
2013-09-01 14:55:00,82.2,71.4,29.77,SE,135,0.0,2.2,70,0.00,,,0.00,WUHU21623XXSP,2013-09-01 18:55:00,
2013-09-01 15:00:00,81.9,71.1,29.77,SE,135,0.0,4.5,70,0.00,,,0.00,WUHU21623XXSP,2013-09-01 19:00:00,
2013-09-01 15:05:00,81.3,71.0,29.77,SE,135,0.0,4.5,71,0.00,,,0.00,WUHU21623XXSP,2013-09-01 19:05:00,
2013-09-01 15:10:00,80.8,70.9,29.77,SE,135,0.0,0.0,72,0.00,,,0.00,WUHU21623XXSP,2013-09-01 19:10:00,
2013-09-01 15:15:00,80.4,70.2,29.76,SE,135,0.0,0.0,71,0.00,,,0.00,WUHU21623XXSP,2013-09-01 19:15:00,
2013-09-01 15:20:00,80.4,70.6,29.76,SE,135,0.0,0.0,72,0.00,,,0.00,WUHU21623XXSP,2013-09-01 19:20:00,
2013-09-01 15:25:00,79.9,71.6,29.76,SE,135,0.0,0.0,76,0.02,,,0.02,WUHU21623XXSP,2013-09-01 19:25:00,
2013-09-01 15:30:00,79.0,71.9,29.76,East,90,0.0,0.0,79,0.02,,,0.02,WUHU21623XXSP,2013-09-01 19:30:00,
2013-09-01 15:35:00,78.4,71.8,29.77,ENE,67,0.0,0.0,80,0.02,,,0.02,WUHU21623XXSP,2013-09-01 19:35:00,
2013-09-01 15:40:00,77.9,71.6,29.77,ENE,67,0.0,0.0,81,0.02,,,0.02,WUHU21623XXSP,2013-09-01 19:40:00,
2013-09-01 15:45:00,77.5,72.0,29.77,NNE,22,0.0,3.8,83,0.02,,,0.02,WUHU21623XXSP,2013-09-01 19:45:00,
2013-09-01 15:50:00,77.4,72.1,29.77,NNE,22,1.3,3.8,84,0.02,,,0.02,WUHU21623XXSP,2013-09-01 19:50:00,
2013-09-01 15:55:00,76.8,72.0,29.77,NNE,22,0.0,1.8,85,0.02,,,0.02,WUHU21623XXSP,2013-09-01 19:55:00,
2013-09-01 16:00:00,76.8,72.3,29.77,NNE,22,0.0,3.6,86,0.02,,,0.02,WUHU21623XXSP,2013-09-01 20:00:00,
2013-09-01 16:05:00,77.4,72.9,29.77,NE,45,0.0,4.0,86,0.02,,,0.02,WUHU21623XXSP,2013-09-01 20:05:00,
2013-09-01 16:10:00,78.4,73.2,29.77,NNE,22,1.6,8.7,84,0.02,,,0.02,WUHU21623XXSP,2013-09-01 20:10:00,
2013-09-01 16:15:00,78.6,73.4,29.77,NE,45,0.0,8.7,84,0.02,,,0.02,WUHU21623XXSP,2013-09-01 20:15:00,
2013-09-01 16:20:00,80.2,74.3,29.77,NE,45,0.0,6.5,82,0.00,,,0.02,WUHU21623XXSP,2013-09-01 20:20:00,
2013-09-01 16:25:00,80.8,74.1,29.77,NNE,22,0.0,6.5,80,0.00,,,0.02,WUHU21623XXSP,2013-09-01 20:25:00,
2013-09-01 16:30:00,79.5,72.5,29.76,ENE,67,0.0,4.0,79,0.00,,,0.02,WUHU21623XXSP,2013-09-01 20:30:00,
2013-09-01 16:35:00,79.5,72.9,29.76,ENE,67,0.0,4.0,80,0.00,,,0.02,WUHU21623XXSP,2013-09-01 20:35:00,
2013-09-01 16:40:00,79.0,72.3,29.76,NNE,22,0.0,3.4,80,0.00,,,0.02,WUHU21623XXSP,2013-09-01 20:40:00,
2013-09-01 16:45:00,78.6,72.3,29.76,NNE,22,0.0,3.4,81,0.00,,,0.02,WUHU21623XXSP,2013-09-01 20:45:00,
2013-09-01 16:50:00,78.6,72.3,29.76,NE,45,0.0,0.0,81,0.00,,,0.02,WUHU21623XXSP,2013-09-01 20:50:00,
2013-09-01 16:55:00,79.5,73.2,29.76,NE,45,0.0,0.0,81,0.00,,,0.02,WUHU21623XXSP,2013-09-01 20:55:00,
2013-09-01 17:00:00,80.1,73.0,29.76,NE,45,0.0,6.0,79,0.00,,,0.02,WUHU21623XXSP,2013-09-01 21:00:00,
2013-09-01 17:05:00,79.3,72.3,29.76,ESE,112,0.0,6.0,79,0.00,,,0.02,WUHU21623XXSP,2013-09-01 21:05:00,
2013-09-01 17:10:00,78.6,71.6,29.76,East,90,0.0,2.2,79,0.00,,,0.02,WUHU21623XXSP,2013-09-01 21:10:00,
2013-09-01 17:15:00,77.9,71.2,29.76,ESE,112,0.0,0.0,80,0.00,,,0.02,WUHU21623XXSP,2013-09-01 21:15:00,
2013-09-01 17:20:00,77.7,71.4,29.77,ENE,67,0.0,0.0,81,0.00,,,0.02,WUHU21623XXSP,2013-09-01 21:20:00,
2013-09-01 17:25:00,77.5,71.6,29.76,ENE,67,0.0,0.0,82,0.00,,,0.02,WUHU21623XXSP,2013-09-01 21:25:00,
2013-09-01 17:30:00,77.2,71.6,29.76,ENE,67,0.0,1.6,83,0.00,,,0.02,WUHU21623XXSP,2013-09-01 21:30:00,
2013-09-01 17:35:00,76.6,70.7,29.76,NE,45,0.0,1.6,82,0.00,,,0.02,WUHU21623XXSP,2013-09-01 21:35:00,
2013-09-01 17:40:00,76.3,70.4,29.75,ENE,67,0.0,0.0,82,0.00,,,0.02,WUHU21623XXSP,2013-09-01 21:40:00,
2013-09-01 17:45:00,75.9,70.4,29.76,ENE,67,6.7,6.7,83,0.00,,,0.02,WUHU21623XXSP,2013-09-01 21:45:00,
2013-09-01 17:50:00,75.7,70.2,29.75,ESE,112,0.0,6.7,83,0.00,,,0.02,WUHU21623XXSP,2013-09-01 21:50:00,
2013-09-01 17:55:00,75.4,70.3,29.76,ESE,112,0.0,5.4,84,0.00,,,0.02,WUHU21623XXSP,2013-09-01 21:55:00,
2013-09-01 18:00:00,75.0,69.9,29.76,East,90,0.0,5.4,84,0.00,,,0.02,WUHU21623XXSP,2013-09-01 22:00:00,
2013-09-01 18:05:00,75.0,70.3,29.76,East,90,0.0,0.0,85,0.00,,,0.02,WUHU21623XXSP,2013-09-01 22:05:00,
2013-09-01 18:10:00,74.8,70.1,29.77,East,90,0.0,0.0,85,0.00,,,0.02,WUHU21623XXSP,2013-09-01 22:10:00,
2013-09-01 18:15:00,74.8,70.1,29.77,East,90,0.0,0.0,85,0.00,,,0.02,WUHU21623XXSP,2013-09-01 22:15:00,
2013-09-01 18:20:00,74.5,69.7,29.77,East,90,0.0,0.0,85,0.00,,,0.02,WUHU21623XXSP,2013-09-01 22:20:00,
2013-09-01 18:25:00,74.5,70.1,29.77,ESE,112,0.0,0.0,86,0.00,,,0.02,WUHU21623XXSP,2013-09-01 22:25:00,
2013-09-01 18:30:00,74.5,70.1,29.77,ESE,112,0.0,0.0,86,0.00,,,0.02,WUHU21623XXSP,2013-09-01 22:30:00,
2013-09-01 18:35:00,74.3,70.2,29.77,ESE,112,0.0,0.0,87,0.00,,,0.02,WUHU21623XXSP,2013-09-01 22:35:00,
2013-09-01 18:40:00,74.1,70.0,29.77,ESE,112,0.0,0.0,87,0.00,,,0.02,WUHU21623XXSP,2013-09-01 22:40:00,
2013-09-01 18:45:00,74.1,70.0,29.77,ESE,112,0.0,0.0,87,0.00,,,0.02,WUHU21623XXSP,2013-09-01 22:45:00,
2013-09-01 18:50:00,73.9,69.9,29.77,ESE,112,0.0,0.0,87,0.00,,,0.02,WUHU21623XXSP,2013-09-01 22:50:00,
2013-09-01 18:55:00,73.8,69.7,29.77,ESE,112,0.0,0.0,87,0.00,,,0.02,WUHU21623XXSP,2013-09-01 22:55:00,
2013-09-01 19:00:00,73.8,69.7,29.77,ESE,112,0.0,0.0,87,0.00,,,0.02,WUHU21623XXSP,2013-09-01 23:00:00,
2013-09-01 19:05:00,73.6,69.5,29.77,ESE,112,0.0,0.0,87,0.00,,,0.02,WUHU21623XXSP,2013-09-01 23:05:00,
2013-09-01 19:10:00,73.2,69.5,29.76,ESE,112,0.0,0.0,88,0.00,,,0.02,WUHU21623XXSP,2013-09-01 23:10:00,
2013-09-01 19:15:00,73.2,69.5,29.76,ESE,112,0.0,0.0,88,0.00,,,0.02,WUHU21623XXSP,2013-09-01 23:15:00,
2013-09-01 19:20:00,73.0,69.3,29.75,ESE,112,0.0,0.0,88,0.00,,,0.02,WUHU21623XXSP,2013-09-01 23:20:00,
2013-09-01 19:25:00,72.9,69.5,29.75,ESE,112,0.0,0.0,89,0.02,,,0.02,WUHU21623XXSP,2013-09-01 23:25:00,
2013-09-01 19:30:00,72.5,69.4,29.75,ESE,112,0.0,0.0,90,0.04,,,0.06,WUHU21623XXSP,2013-09-01 23:30:00,
2013-09-01 19:35:00,72.1,69.4,29.75,SE,135,0.0,0.0,91,0.04,,,0.06,WUHU21623XXSP,2013-09-01 23:35:00,
2013-09-01 19:40:00,71.8,69.0,29.75,SE,135,0.0,0.0,91,0.04,,,0.06,WUHU21623XXSP,2013-09-01 23:40:00,
2013-09-01 19:45:00,71.6,68.8,29.76,SE,135,0.0,0.0,91,0.04,,,0.06,WUHU21623XXSP,2013-09-01 23:45:00,
2013-09-01 19:50:00,71.4,68.7,29.76,SE,135,0.0,0.0,91,0.04,,,0.06,WUHU21623XXSP,2013-09-01 23:50:00,
2013-09-01 19:55:00,71.4,69.0,29.76,SE,135,0.0,0.0,92,0.04,,,0.06,WUHU21623XXSP,2013-09-01 23:55:00,
2013-09-01 20:00:00,71.4,69.0,29.77,SE,135,0.0,0.0,92,0.04,,,0.06,WUHU21623XXSP,2013-09-02 00:00:00,
2013-09-01 20:05:00,71.2,68.8,29.77,SE,135,0.0,0.0,92,0.04,,,0.06,WUHU21623XXSP,2013-09-02 00:05:00,
2013-09-01 20:10:00,71.4,69.0,29.77,SE,135,0.0,0.0,92,0.04,,,0.06,WUHU21623XXSP,2013-09-02 00:10:00,
2013-09-01 20:15:00,71.2,68.8,29.77,SE,135,0.0,0.0,92,0.04,,,0.06,WUHU21623XXSP,2013-09-02 00:15:00,
2013-09-01 20:20:00,71.2,68.8,29.77,SE,135,0.0,0.0,92,0.04,,,0.06,WUHU21623XXSP,2013-09-02 00:20:00,
2013-09-01 20:25:00,71.2,69.1,29.77,SE,135,0.0,0.0,93,0.00,,,0.06,WUHU21623XXSP,2013-09-02 00:25:00,
2013-09-01 20:30:00,71.2,69.1,29.77,SE,135,0.0,0.0,93,0.00,,,0.06,WUHU21623XXSP,2013-09-02 00:30:00,
2013-09-01 20:35:00,71.2,69.1,29.77,SSE,157,0.0,4.7,93,0.08,,,0.12,WUHU21623XXSP,2013-09-02 00:35:00,
2013-09-01 20:40:00,70.9,68.7,29.78,South,180,0.0,4.7,93,0.16,,,0.22,WUHU21623XXSP,2013-09-02 00:40:00,
2013-09-01 20:45:00,70.9,68.7,29.77,South,180,0.0,2.9,93,0.20,,,0.26,WUHU21623XXSP,2013-09-02 00:45:00,
2013-09-01 20:50:00,70.9,68.7,29.77,SSE,157,0.0,0.0,93,0.20,,,0.26,WUHU21623XXSP,2013-09-02 00:50:00,
2013-09-01 20:55:00,70.9,69.0,29.77,SSE,157,0.0,0.0,94,0.20,,,0.26,WUHU21623XXSP,2013-09-02 00:55:00,
2013-09-01 21:00:00,70.9,69.0,29.77,SSE,157,0.0,0.0,94,0.20,,,0.26,WUHU21623XXSP,2013-09-02 01:00:00,
2013-09-01 21:05:00,70.7,68.9,29.77,SSE,157,0.0,0.0,94,0.20,,,0.26,WUHU21623XXSP,2013-09-02 01:05:00,
2013-09-01 21:10:00,70.7,68.9,29.77,SSE,157,0.0,0.0,94,0.20,,,0.26,WUHU21623XXSP,2013-09-02 01:10:00,
2013-09-01 21:15:00,70.5,68.7,29.77,SSE,157,0.0,0.0,94,0.20,,,0.26,WUHU21623XXSP,2013-09-02 01:15:00,
2013-09-01 21:20:00,70.5,68.7,29.78,SSE,157,0.0,0.0,94,0.20,,,0.26,WUHU21623XXSP,2013-09-02 01:20:00,
2013-09-01 21:25:00,70.3,68.5,29.77,South,180,0.0,0.0,94,0.20,,,0.26,WUHU21623XXSP,2013-09-02 01:25:00,
2013-09-01 21:30:00,70.3,68.5,29.77,South,180,0.0,0.0,94,0.20,,,0.26,WUHU21623XXSP,2013-09-02 01:30:00,
2013-09-01 21:35:00,70.3,68.5,29.77,South,180,0.0,0.0,94,0.10,,,0.26,WUHU21623XXSP,2013-09-02 01:35:00,
2013-09-01 21:40:00,70.2,68.3,29.77,South,180,0.0,0.0,94,0.02,,,0.26,WUHU21623XXSP,2013-09-02 01:40:00,
2013-09-01 21:45:00,70.2,68.3,29.77,South,180,0.0,0.0,94,0.00,,,0.26,WUHU21623XXSP,2013-09-02 01:45:00,
2013-09-01 21:50:00,70.2,68.3,29.77,South,180,0.0,0.0,94,0.00,,,0.26,WUHU21623XXSP,2013-09-02 01:50:00,
2013-09-01 21:55:00,70.0,68.1,29.77,South,180,0.0,0.0,94,0.00,,,0.26,WUHU21623XXSP,2013-09-02 01:55:00,
2013-09-01 22:00:00,69.8,68.0,29.77,South,180,0.0,0.0,94,0.00,,,0.26,WUHU21623XXSP,2013-09-02 02:00:00,
2013-09-01 22:05:00,69.6,67.8,29.77,South,180,0.0,0.0,94,0.00,,,0.26,WUHU21623XXSP,2013-09-02 02:05:00,
2013-09-01 22:10:00,69.4,67.6,29.76,South,180,0.0,0.0,94,0.00,,,0.26,WUHU21623XXSP,2013-09-02 02:10:00,
2013-09-01 22:15:00,69.4,67.9,29.76,South,180,0.0,0.0,95,0.00,,,0.26,WUHU21623XXSP,2013-09-02 02:15:00,
2013-09-01 22:20:00,69.3,67.7,29.76,South,180,0.0,0.0,95,0.00,,,0.26,WUHU21623XXSP,2013-09-02 02:20:00,
2013-09-01 22:25:00,69.3,67.7,29.77,South,180,0.0,0.0,95,0.00,,,0.26,WUHU21623XXSP,2013-09-02 02:25:00,
2013-09-01 22:30:00,69.1,67.6,29.77,South,180,0.0,0.0,95,0.00,,,0.26,WUHU21623XXSP,2013-09-02 02:30:00,
2013-09-01 22:35:00,69.1,67.6,29.78,South,180,0.0,0.0,95,0.00,,,0.26,WUHU21623XXSP,2013-09-02 02:35:00,
2013-09-01 22:40:00,68.9,67.4,29.77,South,180,0.0,0.0,95,0.00,,,0.26,WUHU21623XXSP,2013-09-02 02:40:00,
2013-09-01 22:45:00,68.9,67.4,29.78,South,180,0.0,0.0,95,0.00,,,0.26,WUHU21623XXSP,2013-09-02 02:45:00,
2013-09-01 22:50:00,68.7,67.2,29.78,South,180,0.0,0.0,95,0.00,,,0.26,WUHU21623XXSP,2013-09-02 02:50:00,
2013-09-01 22:55:00,68.5,66.7,29.77,South,180,0.0,0.0,94,0.00,,,0.26,WUHU21623XXSP,2013-09-02 02:55:00,
2013-09-01 23:00:00,68.4,66.5,29.77,South,180,0.0,0.0,94,0.00,,,0.26,WUHU21623XXSP,2013-09-02 03:00:00,
2013-09-01 23:05:00,68.2,66.7,29.76,South,180,0.0,0.0,95,0.00,,,0.26,WUHU21623XXSP,2013-09-02 03:05:00,
2013-09-01 23:10:00,68.2,66.7,29.76,South,180,0.0,0.0,95,0.00,,,0.26,WUHU21623XXSP,2013-09-02 03:10:00,
2013-09-01 23:15:00,68.5,67.0,29.75,South,180,0.0,0.0,95,0.00,,,0.26,WUHU21623XXSP,2013-09-02 03:15:00,
2013-09-01 23:20:00,68.7,67.2,29.75,South,180,0.0,0.0,95,0.00,,,0.26,WUHU21623XXSP,2013-09-02 03:20:00,
2013-09-01 23:25:00,68.7,67.2,29.76,South,180,0.0,0.0,95,0.00,,,0.26,WUHU21623XXSP,2013-09-02 03:25:00,
2013-09-01 23:30:00,68.9,67.4,29.75,South,180,0.0,0.0,95,0.00,,,0.26,WUHU21623XXSP,2013-09-02 03:30:00,
2013-09-01 23:35:00,68.7,67.2,29.75,South,180,0.0,0.0,95,0.00,,,0.26,WUHU21623XXSP,2013-09-02 03:35:00,
2013-09-01 23:40:00,68.9,67.4,29.76,South,180,0.0,0.0,95,0.00,,,0.26,WUHU21623XXSP,2013-09-02 03:40:00,
2013-09-01 23:45:00,68.9,67.4,29.75,South,180,0.0,0.0,95,0.00,,,0.26,WUHU21623XXSP,2013-09-02 03:45:00,
2013-09-01 23:50:00,68.9,67.4,29.75,South,180,0.0,0.0,95,0.00,,,0.26,WUHU21623XXSP,2013-09-02 03:50:00,
2013-09-01 23:55:00,68.7,67.2,29.75,South,180,0.0,0.0,95,0.00,,,0.26,WUHU21623XXSP,2013-09-02 03:55:00,